sensor_id;sensor_type;location;lat;lon;timestamp;P1;durP1;ratioP1;P2;durP2;ratioP2
8159;SDS011;27404;52.398;9.646;2022-10-31T00:01:16;15.53;;;9.10;;
8159;SDS011;27404;52.398;9.646;2022-10-31T00:03:41;17.50;;;9.57;;
8159;SDS011;27404;52.398;9.646;2022-10-31T00:06:07;19.40;;;8.97;;
8159;SDS011;27404;52.398;9.646;2022-10-31T00:08:32;16.03;;;9.43;;
8159;SDS011;27404;52.398;9.646;2022-10-31T00:10:58;19.37;;;9.10;;
8159;SDS011;27404;52.398;9.646;2022-10-31T00:13:23;14.63;;;9.07;;
8159;SDS011;27404;52.398;9.646;2022-10-31T00:15:49;17.73;;;9.40;;
8159;SDS011;27404;52.398;9.646;2022-10-31T00:18:14;16.07;;;9.30;;
8159;SDS011;27404;52.398;9.646;2022-10-31T00:20:40;20.70;;;9.43;;
8159;SDS011;27404;52.398;9.646;2022-10-31T00:23:06;15.67;;;10.13;;
8159;SDS011;27404;52.398;9.646;2022-10-31T00:25:36;14.70;;;9.93;;
8159;SDS011;27404;52.398;9.646;2022-10-31T00:28:03;13.67;;;8.90;;
8159;SDS011;27404;52.398;9.646;2022-10-31T00:30:29;18.50;;;9.67;;
8159;SDS011;27404;52.398;9.646;2022-10-31T00:32:55;17.40;;;10.10;;
8159;SDS011;27404;52.398;9.646;2022-10-31T00:35:20;21.43;;;10.80;;
8159;SDS011;27404;52.398;9.646;2022-10-31T00:37:46;34.57;;;13.37;;
8159;SDS011;27404;52.398;9.646;2022-10-31T00:40:11;24.47;;;13.37;;
8159;SDS011;27404;52.398;9.646;2022-10-31T00:42:38;34.63;;;15.23;;
8159;SDS011;27404;52.398;9.646;2022-10-31T00:45:04;28.40;;;14.30;;
8159;SDS011;27404;52.398;9.646;2022-10-31T00:47:30;28.10;;;14.67;;
8159;SDS011;27404;52.398;9.646;2022-10-31T00:49:55;28.03;;;14.60;;
8159;SDS011;27404;52.398;9.646;2022-10-31T00:52:20;28.73;;;14.87;;
8159;SDS011;27404;52.398;9.646;2022-10-31T00:54:46;26.93;;;14.70;;
8159;SDS011;27404;52.398;9.646;2022-10-31T00:57:11;28.00;;;15.50;;
8159;SDS011;27404;52.398;9.646;2022-10-31T00:59:37;27.90;;;16.07;;
8159;SDS011;27404;52.398;9.646;2022-10-31T01:02:02;36.30;;;15.93;;
8159;SDS011;27404;52.398;9.646;2022-10-31T01:04:28;28.83;;;15.33;;
8159;SDS011;27404;52.398;9.646;2022-10-31T01:06:53;29.60;;;16.80;;
8159;SDS011;27404;52.398;9.646;2022-10-31T01:09:19;34.03;;;17.33;;
8159;SDS011;27404;52.398;9.646;2022-10-31T01:11:44;31.47;;;18.17;;
8159;SDS011;27404;52.398;9.646;2022-10-31T01:14:10;30.37;;;17.50;;
8159;SDS011;27404;52.398;9.646;2022-10-31T01:16:35;39.00;;;18.13;;
8159;SDS011;27404;52.398;9.646;2022-10-31T01:19:01;31.17;;;17.53;;
8159;SDS011;27404;52.398;9.646;2022-10-31T01:21:27;34.53;;;17.87;;
8159;SDS011;27404;52.398;9.646;2022-10-31T01:23:54;35.67;;;19.00;;
8159;SDS011;27404;52.398;9.646;2022-10-31T01:26:24;37.60;;;19.10;;
8159;SDS011;27404;52.398;9.646;2022-10-31T01:28:52;42.23;;;19.93;;
8159;SDS011;27404;52.398;9.646;2022-10-31T01:31:21;40.07;;;19.13;;
8159;SDS011;27404;52.398;9.646;2022-10-31T01:33:49;33.10;;;19.23;;
8159;SDS011;27404;52.398;9.646;2022-10-31T01:36:19;37.50;;;21.00;;
8159;SDS011;27404;52.398;9.646;2022-10-31T01:38:48;40.80;;;19.57;;
8159;SDS011;27404;52.398;9.646;2022-10-31T01:41:16;35.67;;;20.60;;
8159;SDS011;27404;52.398;9.646;2022-10-31T01:43:54;40.00;;;21.27;;
8159;SDS011;27404;52.398;9.646;2022-10-31T01:48:59;38.07;;;21.03;;
8159;SDS011;27404;52.398;9.646;2022-10-31T01:51:28;39.40;;;20.83;;
8159;SDS011;27404;52.398;9.646;2022-10-31T01:53:58;35.57;;;19.77;;
8159;SDS011;27404;52.398;9.646;2022-10-31T01:56:26;40.50;;;21.90;;
8159;SDS011;27404;52.398;9.646;2022-10-31T01:58:52;46.03;;;21.83;;
8159;SDS011;27404;52.398;9.646;2022-10-31T02:01:21;35.53;;;20.97;;
8159;SDS011;27404;52.398;9.646;2022-10-31T02:03:46;44.43;;;21.53;;
8159;SDS011;27404;52.398;9.646;2022-10-31T02:06:26;40.40;;;20.63;;
8159;SDS011;27404;52.398;9.646;2022-10-31T02:09:00;41.53;;;22.70;;
8159;SDS011;27404;52.398;9.646;2022-10-31T02:11:28;39.63;;;22.23;;
8159;SDS011;27404;52.398;9.646;2022-10-31T02:13:54;35.77;;;20.97;;
8159;SDS011;27404;52.398;9.646;2022-10-31T02:16:20;35.40;;;21.07;;
8159;SDS011;27404;52.398;9.646;2022-10-31T02:18:45;41.40;;;22.43;;
8159;SDS011;27404;52.398;9.646;2022-10-31T02:21:25;46.73;;;23.10;;
8159;SDS011;27404;52.398;9.646;2022-10-31T02:41:22;49.93;;;23.23;;
8159;SDS011;27404;52.398;9.646;2022-10-31T02:44:00;40.73;;;22.43;;
8159;SDS011;27404;52.398;9.646;2022-10-31T02:51:51;46.30;;;24.77;;
8159;SDS011;27404;52.398;9.646;2022-10-31T02:54:27;48.90;;;24.63;;
8159;SDS011;27404;52.398;9.646;2022-10-31T02:57:04;45.53;;;25.07;;
8159;SDS011;27404;52.398;9.646;2022-10-31T02:59:32;44.90;;;22.93;;
8159;SDS011;27404;52.398;9.646;2022-10-31T03:02:16;45.93;;;23.63;;
8159;SDS011;27404;52.398;9.646;2022-10-31T03:10:46;40.40;;;23.10;;
8159;SDS011;27404;52.398;9.646;2022-10-31T03:15:51;45.80;;;24.20;;
8159;SDS011;27404;52.398;9.646;2022-10-31T03:18:32;47.47;;;23.63;;
8159;SDS011;27404;52.398;9.646;2022-10-31T03:21:07;49.00;;;23.17;;
8159;SDS011;27404;52.398;9.646;2022-10-31T03:23:39;40.47;;;22.73;;
8159;SDS011;27404;52.398;9.646;2022-10-31T03:26:07;50.03;;;23.60;;
8159;SDS011;27404;52.398;9.646;2022-10-31T03:28:36;47.87;;;24.40;;
8159;SDS011;27404;52.398;9.646;2022-10-31T03:31:06;50.33;;;23.67;;
8159;SDS011;27404;52.398;9.646;2022-10-31T03:33:34;47.33;;;24.80;;
8159;SDS011;27404;52.398;9.646;2022-10-31T03:36:03;51.47;;;24.20;;
8159;SDS011;27404;52.398;9.646;2022-10-31T03:38:32;49.37;;;23.57;;
8159;SDS011;27404;52.398;9.646;2022-10-31T03:41:01;44.93;;;24.80;;
8159;SDS011;27404;52.398;9.646;2022-10-31T03:43:30;46.13;;;24.73;;
8159;SDS011;27404;52.398;9.646;2022-10-31T03:46:02;51.57;;;24.70;;
8159;SDS011;27404;52.398;9.646;2022-10-31T03:48:28;49.63;;;27.17;;
8159;SDS011;27404;52.398;9.646;2022-10-31T03:53:30;49.37;;;23.97;;
8159;SDS011;27404;52.398;9.646;2022-10-31T03:56:34;52.43;;;25.80;;
8159;SDS011;27404;52.398;9.646;2022-10-31T03:59:28;43.67;;;22.90;;
8159;SDS011;27404;52.398;9.646;2022-10-31T04:02:02;43.37;;;24.07;;
8159;SDS011;27404;52.398;9.646;2022-10-31T04:04:32;48.70;;;25.70;;
8159;SDS011;27404;52.398;9.646;2022-10-31T04:07:00;54.20;;;25.40;;
8159;SDS011;27404;52.398;9.646;2022-10-31T04:09:27;46.90;;;25.03;;
8159;SDS011;27404;52.398;9.646;2022-10-31T04:11:55;52.37;;;26.43;;
8159;SDS011;27404;52.398;9.646;2022-10-31T04:14:23;56.57;;;26.43;;
8159;SDS011;27404;52.398;9.646;2022-10-31T04:16:52;53.90;;;26.20;;
8159;SDS011;27404;52.398;9.646;2022-10-31T04:19:18;47.43;;;24.93;;
8159;SDS011;27404;52.398;9.646;2022-10-31T04:21:43;46.97;;;24.77;;
8159;SDS011;27404;52.398;9.646;2022-10-31T04:24:09;51.30;;;27.10;;
8159;SDS011;27404;52.398;9.646;2022-10-31T04:26:35;52.90;;;27.57;;
8159;SDS011;27404;52.398;9.646;2022-10-31T04:29:01;51.20;;;25.83;;
8159;SDS011;27404;52.398;9.646;2022-10-31T04:31:26;57.00;;;27.77;;
8159;SDS011;27404;52.398;9.646;2022-10-31T04:33:52;49.30;;;26.20;;
8159;SDS011;27404;52.398;9.646;2022-10-31T04:36:17;49.70;;;24.93;;
8159;SDS011;27404;52.398;9.646;2022-10-31T04:38:43;48.80;;;26.53;;
8159;SDS011;27404;52.398;9.646;2022-10-31T04:41:08;43.50;;;24.00;;
8159;SDS011;27404;52.398;9.646;2022-10-31T04:43:33;49.50;;;25.67;;
8159;SDS011;27404;52.398;9.646;2022-10-31T04:45:59;49.47;;;25.47;;
8159;SDS011;27404;52.398;9.646;2022-10-31T04:48:24;49.50;;;26.10;;
8159;SDS011;27404;52.398;9.646;2022-10-31T04:50:50;48.27;;;24.53;;
8159;SDS011;27404;52.398;9.646;2022-10-31T04:53:15;51.37;;;25.57;;
8159;SDS011;27404;52.398;9.646;2022-10-31T04:55:41;56.13;;;26.57;;
8159;SDS011;27404;52.398;9.646;2022-10-31T04:58:06;46.57;;;24.30;;
8159;SDS011;27404;52.398;9.646;2022-10-31T05:00:32;59.00;;;25.73;;
8159;SDS011;27404;52.398;9.646;2022-10-31T05:02:57;51.87;;;26.53;;
8159;SDS011;27404;52.398;9.646;2022-10-31T05:05:25;50.00;;;24.87;;
8159;SDS011;27404;52.398;9.646;2022-10-31T05:07:55;46.67;;;25.97;;
8159;SDS011;27404;52.398;9.646;2022-10-31T05:10:22;45.87;;;25.00;;
8159;SDS011;27404;52.398;9.646;2022-10-31T05:12:56;49.77;;;24.13;;
8159;SDS011;27404;52.398;9.646;2022-10-31T05:15:24;55.50;;;26.17;;
8159;SDS011;27404;52.398;9.646;2022-10-31T05:17:51;45.60;;;24.70;;
8159;SDS011;27404;52.398;9.646;2022-10-31T05:20:18;45.77;;;23.53;;
8159;SDS011;27404;52.398;9.646;2022-10-31T05:22:48;40.00;;;22.83;;
8159;SDS011;27404;52.398;9.646;2022-10-31T05:25:16;51.00;;;24.23;;
8159;SDS011;27404;52.398;9.646;2022-10-31T05:27:44;43.97;;;22.50;;
8159;SDS011;27404;52.398;9.646;2022-10-31T05:30:12;42.37;;;23.50;;
8159;SDS011;27404;52.398;9.646;2022-10-31T05:35:06;43.30;;;21.97;;
8159;SDS011;27404;52.398;9.646;2022-10-31T05:37:33;39.77;;;21.43;;
8159;SDS011;27404;52.398;9.646;2022-10-31T05:40:03;44.13;;;21.93;;
8159;SDS011;27404;52.398;9.646;2022-10-31T05:42:30;46.63;;;24.00;;
8159;SDS011;27404;52.398;9.646;2022-10-31T05:44:55;46.90;;;22.93;;
8159;SDS011;27404;52.398;9.646;2022-10-31T05:47:20;39.27;;;21.17;;
8159;SDS011;27404;52.398;9.646;2022-10-31T05:49:46;37.33;;;21.70;;
8159;SDS011;27404;52.398;9.646;2022-10-31T05:52:11;43.47;;;21.83;;
8159;SDS011;27404;52.398;9.646;2022-10-31T05:54:37;33.80;;;19.60;;
8159;SDS011;27404;52.398;9.646;2022-10-31T05:57:02;36.30;;;21.07;;
8159;SDS011;27404;52.398;9.646;2022-10-31T05:59:28;41.17;;;21.13;;
8159;SDS011;27404;52.398;9.646;2022-10-31T06:01:53;41.43;;;21.23;;
8159;SDS011;27404;52.398;9.646;2022-10-31T06:04:19;36.53;;;20.00;;
8159;SDS011;27404;52.398;9.646;2022-10-31T06:06:44;39.07;;;22.23;;
8159;SDS011;27404;52.398;9.646;2022-10-31T06:09:09;41.93;;;21.77;;
8159;SDS011;27404;52.398;9.646;2022-10-31T06:11:35;38.87;;;20.17;;
8159;SDS011;27404;52.398;9.646;2022-10-31T06:14:00;36.27;;;19.20;;
8159;SDS011;27404;52.398;9.646;2022-10-31T06:16:26;39.27;;;19.10;;
8159;SDS011;27404;52.398;9.646;2022-10-31T06:18:51;39.27;;;19.57;;
8159;SDS011;27404;52.398;9.646;2022-10-31T06:21:17;42.77;;;20.93;;
8159;SDS011;27404;52.398;9.646;2022-10-31T06:23:42;35.77;;;19.30;;
8159;SDS011;27404;52.398;9.646;2022-10-31T06:26:08;33.63;;;18.77;;
8159;SDS011;27404;52.398;9.646;2022-10-31T06:28:33;32.77;;;19.43;;
8159;SDS011;27404;52.398;9.646;2022-10-31T06:30:58;33.20;;;18.90;;
8159;SDS011;27404;52.398;9.646;2022-10-31T06:33:24;36.43;;;19.33;;
8159;SDS011;27404;52.398;9.646;2022-10-31T06:35:49;37.73;;;18.97;;
8159;SDS011;27404;52.398;9.646;2022-10-31T06:38:15;31.90;;;18.33;;
8159;SDS011;27404;52.398;9.646;2022-10-31T06:40:40;35.47;;;17.83;;
8159;SDS011;27404;52.398;9.646;2022-10-31T06:43:06;31.43;;;18.53;;
8159;SDS011;27404;52.398;9.646;2022-10-31T06:45:31;35.53;;;19.53;;
8159;SDS011;27404;52.398;9.646;2022-10-31T06:47:56;35.50;;;18.83;;
8159;SDS011;27404;52.398;9.646;2022-10-31T06:50:22;29.23;;;16.77;;
8159;SDS011;27404;52.398;9.646;2022-10-31T06:52:55;28.23;;;16.10;;
8159;SDS011;27404;52.398;9.646;2022-10-31T06:55:22;28.93;;;15.90;;
8159;SDS011;27404;52.398;9.646;2022-10-31T06:57:50;26.30;;;16.67;;
8159;SDS011;27404;52.398;9.646;2022-10-31T07:00:19;28.90;;;16.13;;
8159;SDS011;27404;52.398;9.646;2022-10-31T07:05:24;30.73;;;16.63;;
8159;SDS011;27404;52.398;9.646;2022-10-31T07:08:00;26.10;;;16.50;;
8159;SDS011;27404;52.398;9.646;2022-10-31T07:10:28;24.80;;;15.33;;
8159;SDS011;27404;52.398;9.646;2022-10-31T07:12:56;30.47;;;17.00;;
8159;SDS011;27404;52.398;9.646;2022-10-31T07:15:23;33.67;;;18.20;;
8159;SDS011;27404;52.398;9.646;2022-10-31T07:17:49;26.23;;;16.13;;
8159;SDS011;27404;52.398;9.646;2022-10-31T07:20:14;32.53;;;16.93;;
8159;SDS011;27404;52.398;9.646;2022-10-31T07:22:40;26.73;;;16.57;;
8159;SDS011;27404;52.398;9.646;2022-10-31T07:25:05;32.80;;;17.80;;
8159;SDS011;27404;52.398;9.646;2022-10-31T07:27:41;30.93;;;18.43;;
8159;SDS011;27404;52.398;9.646;2022-10-31T07:30:08;22.97;;;14.17;;
8159;SDS011;27404;52.398;9.646;2022-10-31T07:35:05;26.73;;;15.73;;
8159;SDS011;27404;52.398;9.646;2022-10-31T07:37:32;27.70;;;15.30;;
8159;SDS011;27404;52.398;9.646;2022-10-31T07:39:58;24.93;;;14.97;;
8159;SDS011;27404;52.398;9.646;2022-10-31T07:42:23;26.30;;;14.77;;
8159;SDS011;27404;52.398;9.646;2022-10-31T07:44:49;28.70;;;15.90;;
8159;SDS011;27404;52.398;9.646;2022-10-31T07:47:14;29.93;;;16.80;;
8159;SDS011;27404;52.398;9.646;2022-10-31T07:49:39;29.57;;;16.17;;
8159;SDS011;27404;52.398;9.646;2022-10-31T07:52:05;31.97;;;17.23;;
8159;SDS011;27404;52.398;9.646;2022-10-31T07:54:30;27.20;;;15.70;;
8159;SDS011;27404;52.398;9.646;2022-10-31T07:56:56;26.30;;;15.80;;
8159;SDS011;27404;52.398;9.646;2022-10-31T07:59:21;28.37;;;16.00;;
8159;SDS011;27404;52.398;9.646;2022-10-31T08:01:47;27.20;;;15.23;;
8159;SDS011;27404;52.398;9.646;2022-10-31T08:04:12;27.33;;;14.70;;
8159;SDS011;27404;52.398;9.646;2022-10-31T08:06:37;29.07;;;15.53;;
8159;SDS011;27404;52.398;9.646;2022-10-31T08:09:03;26.23;;;14.77;;
8159;SDS011;27404;52.398;9.646;2022-10-31T08:11:28;26.40;;;15.60;;
8159;SDS011;27404;52.398;9.646;2022-10-31T08:13:54;29.87;;;15.93;;
8159;SDS011;27404;52.398;9.646;2022-10-31T08:16:19;28.73;;;17.13;;
8159;SDS011;27404;52.398;9.646;2022-10-31T08:18:45;31.33;;;16.30;;
8159;SDS011;27404;52.398;9.646;2022-10-31T08:21:10;24.23;;;15.47;;
8159;SDS011;27404;52.398;9.646;2022-10-31T08:23:35;25.27;;;14.77;;
8159;SDS011;27404;52.398;9.646;2022-10-31T08:26:01;23.80;;;15.50;;
8159;SDS011;27404;52.398;9.646;2022-10-31T08:28:26;31.20;;;18.17;;
8159;SDS011;27404;52.398;9.646;2022-10-31T08:30:52;26.33;;;15.90;;
8159;SDS011;27404;52.398;9.646;2022-10-31T08:33:18;26.77;;;16.00;;
8159;SDS011;27404;52.398;9.646;2022-10-31T08:35:44;26.67;;;15.83;;
8159;SDS011;27404;52.398;9.646;2022-10-31T08:38:10;28.40;;;15.60;;
8159;SDS011;27404;52.398;9.646;2022-10-31T08:40:37;28.07;;;15.03;;
8159;SDS011;27404;52.398;9.646;2022-10-31T08:43:03;28.07;;;13.80;;
8159;SDS011;27404;52.398;9.646;2022-10-31T08:45:31;28.83;;;15.77;;
8159;SDS011;27404;52.398;9.646;2022-10-31T08:48:01;23.43;;;14.63;;
8159;SDS011;27404;52.398;9.646;2022-10-31T08:50:29;24.17;;;15.10;;
8159;SDS011;27404;52.398;9.646;2022-10-31T08:53:04;30.90;;;16.53;;
8159;SDS011;27404;52.398;9.646;2022-10-31T08:55:32;28.13;;;14.40;;
8159;SDS011;27404;52.398;9.646;2022-10-31T08:57:59;28.20;;;15.77;;
8159;SDS011;27404;52.398;9.646;2022-10-31T09:00:24;27.87;;;14.77;;
8159;SDS011;27404;52.398;9.646;2022-10-31T09:02:57;24.83;;;15.57;;
8159;SDS011;27404;52.398;9.646;2022-10-31T09:05:23;21.87;;;13.63;;
8159;SDS011;27404;52.398;9.646;2022-10-31T09:07:49;24.77;;;14.47;;
8159;SDS011;27404;52.398;9.646;2022-10-31T09:10:14;24.93;;;14.50;;
8159;SDS011;27404;52.398;9.646;2022-10-31T09:12:40;24.23;;;14.40;;
8159;SDS011;27404;52.398;9.646;2022-10-31T09:15:06;27.23;;;14.93;;
8159;SDS011;27404;52.398;9.646;2022-10-31T09:17:32;30.73;;;16.30;;
8159;SDS011;27404;52.398;9.646;2022-10-31T09:19:58;29.10;;;15.90;;
8159;SDS011;27404;52.398;9.646;2022-10-31T09:22:23;24.30;;;15.50;;
8159;SDS011;27404;52.398;9.646;2022-10-31T09:24:49;23.33;;;14.80;;
8159;SDS011;27404;52.398;9.646;2022-10-31T09:27:14;24.10;;;14.00;;
8159;SDS011;27404;52.398;9.646;2022-10-31T09:29:39;26.27;;;13.83;;
8159;SDS011;27404;52.398;9.646;2022-10-31T09:32:05;20.57;;;13.83;;
8159;SDS011;27404;52.398;9.646;2022-10-31T09:34:30;25.60;;;13.77;;
8159;SDS011;27404;52.398;9.646;2022-10-31T09:36:56;21.83;;;13.70;;
8159;SDS011;27404;52.398;9.646;2022-10-31T09:39:21;26.23;;;14.20;;
8159;SDS011;27404;52.398;9.646;2022-10-31T09:41:55;24.40;;;13.57;;
8159;SDS011;27404;52.398;9.646;2022-10-31T09:47:07;26.47;;;12.60;;
8159;SDS011;27404;52.398;9.646;2022-10-31T09:50:52;27.90;;;14.67;;
8159;SDS011;27404;52.398;9.646;2022-10-31T09:54:04;26.63;;;13.17;;
8159;SDS011;27404;52.398;9.646;2022-10-31T09:56:25;23.63;;;13.50;;
8159;SDS011;27404;52.398;9.646;2022-10-31T09:58:56;20.13;;;11.53;;
8159;SDS011;27404;52.398;9.646;2022-10-31T10:09:56;22.10;;;12.30;;
8159;SDS011;27404;52.398;9.646;2022-10-31T10:13:09;25.60;;;12.33;;
8159;SDS011;27404;52.398;9.646;2022-10-31T10:23:51;19.10;;;10.50;;
8159;SDS011;27404;52.398;9.646;2022-10-31T10:30:01;18.53;;;10.57;;
8159;SDS011;27404;52.398;9.646;2022-10-31T10:32:34;21.53;;;11.17;;
8159;SDS011;27404;52.398;9.646;2022-10-31T10:35:29;19.23;;;10.17;;
8159;SDS011;27404;52.398;9.646;2022-10-31T10:37:56;16.20;;;10.67;;
8159;SDS011;27404;52.398;9.646;2022-10-31T10:40:26;20.87;;;10.43;;
8159;SDS011;27404;52.398;9.646;2022-10-31T10:43:01;20.93;;;10.57;;
8159;SDS011;27404;52.398;9.646;2022-10-31T10:46:00;21.33;;;10.67;;
8159;SDS011;27404;52.398;9.646;2022-10-31T10:51:54;19.67;;;10.17;;
8159;SDS011;27404;52.398;9.646;2022-10-31T10:59:39;16.97;;;9.67;;
8159;SDS011;27404;52.398;9.646;2022-10-31T11:02:20;20.13;;;10.03;;
8159;SDS011;27404;52.398;9.646;2022-10-31T11:04:52;15.93;;;8.77;;
8159;SDS011;27404;52.398;9.646;2022-10-31T11:07:19;21.73;;;9.37;;
8159;SDS011;27404;52.398;9.646;2022-10-31T11:09:45;21.90;;;9.83;;
8159;SDS011;27404;52.398;9.646;2022-10-31T11:14:58;21.00;;;9.40;;
8159;SDS011;27404;52.398;9.646;2022-10-31T11:17:30;17.57;;;8.87;;
8159;SDS011;27404;52.398;9.646;2022-10-31T11:20:49;19.23;;;9.63;;
8159;SDS011;27404;52.398;9.646;2022-10-31T11:22:45;21.63;;;8.30;;
8159;SDS011;27404;52.398;9.646;2022-10-31T11:25:21;13.43;;;8.10;;
8159;SDS011;27404;52.398;9.646;2022-10-31T11:30:54;13.67;;;7.93;;
8159;SDS011;27404;52.398;9.646;2022-10-31T11:33:24;20.23;;;8.90;;
8159;SDS011;27404;52.398;9.646;2022-10-31T11:35:53;13.80;;;7.40;;
8159;SDS011;27404;52.398;9.646;2022-10-31T11:38:21;14.77;;;8.27;;
8159;SDS011;27404;52.398;9.646;2022-10-31T11:40:55;23.93;;;11.03;;
8159;SDS011;27404;52.398;9.646;2022-10-31T11:43:24;21.87;;;9.00;;
8159;SDS011;27404;52.398;9.646;2022-10-31T11:45:51;21.47;;;9.73;;
8159;SDS011;27404;52.398;9.646;2022-10-31T11:48:17;16.70;;;9.33;;
8159;SDS011;27404;52.398;9.646;2022-10-31T11:50:50;14.50;;;9.23;;
8159;SDS011;27404;52.398;9.646;2022-10-31T11:53:32;22.63;;;10.43;;
8159;SDS011;27404;52.398;9.646;2022-10-31T11:56:14;23.30;;;12.47;;
8159;SDS011;27404;52.398;9.646;2022-10-31T11:58:41;20.23;;;10.30;;
8159;SDS011;27404;52.398;9.646;2022-10-31T12:01:20;18.90;;;8.73;;
8159;SDS011;27404;52.398;9.646;2022-10-31T12:03:59;15.37;;;7.67;;
8159;SDS011;27404;52.398;9.646;2022-10-31T12:06:40;13.70;;;7.77;;
8159;SDS011;27404;52.398;9.646;2022-10-31T12:12:00;16.97;;;8.23;;
8159;SDS011;27404;52.398;9.646;2022-10-31T12:14:58;16.47;;;7.00;;
8159;SDS011;27404;52.398;9.646;2022-10-31T12:17:43;13.93;;;6.83;;
8159;SDS011;27404;52.398;9.646;2022-10-31T12:28:48;10.93;;;5.00;;
8159;SDS011;27404;52.398;9.646;2022-10-31T13:01:37;18.23;;;7.10;;
8159;SDS011;27404;52.398;9.646;2022-10-31T13:04:14;15.33;;;8.93;;
8159;SDS011;27404;52.398;9.646;2022-10-31T13:06:49;12.10;;;6.00;;
8159;SDS011;27404;52.398;9.646;2022-10-31T13:09:21;17.13;;;6.43;;
8159;SDS011;27404;52.398;9.646;2022-10-31T13:12:10;15.63;;;6.17;;
8159;SDS011;27404;52.398;9.646;2022-10-31T13:14:40;19.63;;;6.63;;
8159;SDS011;27404;52.398;9.646;2022-10-31T13:20:03;11.70;;;6.27;;
8159;SDS011;27404;52.398;9.646;2022-10-31T13:22:44;14.40;;;6.70;;
8159;SDS011;27404;52.398;9.646;2022-10-31T13:25:47;17.03;;;7.10;;
8159;SDS011;27404;52.398;9.646;2022-10-31T13:28:12;19.20;;;8.93;;
8159;SDS011;27404;52.398;9.646;2022-10-31T13:31:09;15.93;;;8.00;;
8159;SDS011;27404;52.398;9.646;2022-10-31T13:33:51;16.63;;;7.70;;
8159;SDS011;27404;52.398;9.646;2022-10-31T13:36:25;18.70;;;8.17;;
8159;SDS011;27404;52.398;9.646;2022-10-31T13:44:52;18.37;;;9.50;;
8159;SDS011;27404;52.398;9.646;2022-10-31T13:49:48;15.40;;;8.17;;
8159;SDS011;27404;52.398;9.646;2022-10-31T13:52:16;16.27;;;8.20;;
8159;SDS011;27404;52.398;9.646;2022-10-31T13:54:52;19.97;;;8.03;;
8159;SDS011;27404;52.398;9.646;2022-10-31T14:02:47;11.43;;;7.23;;
8159;SDS011;27404;52.398;9.646;2022-10-31T14:07:52;24.93;;;12.93;;
8159;SDS011;27404;52.398;9.646;2022-10-31T14:10:24;28.53;;;13.07;;
8159;SDS011;27404;52.398;9.646;2022-10-31T14:12:54;29.37;;;13.73;;
8159;SDS011;27404;52.398;9.646;2022-10-31T14:15:29;23.83;;;14.30;;
8159;SDS011;27404;52.398;9.646;2022-10-31T14:17:56;24.60;;;14.43;;
8159;SDS011;27404;52.398;9.646;2022-10-31T14:22:56;32.40;;;15.53;;
8159;SDS011;27404;52.398;9.646;2022-10-31T14:25:25;28.07;;;15.17;;
8159;SDS011;27404;52.398;9.646;2022-10-31T14:27:51;29.27;;;15.47;;
8159;SDS011;27404;52.398;9.646;2022-10-31T14:30:19;27.23;;;14.83;;
8159;SDS011;27404;52.398;9.646;2022-10-31T14:32:55;28.40;;;15.60;;
8159;SDS011;27404;52.398;9.646;2022-10-31T14:35:25;32.23;;;16.07;;
8159;SDS011;27404;52.398;9.646;2022-10-31T14:51:38;36.10;;;17.67;;
8159;SDS011;27404;52.398;9.646;2022-10-31T14:54:08;37.87;;;18.80;;
8159;SDS011;27404;52.398;9.646;2022-10-31T14:56:54;34.03;;;17.70;;
8159;SDS011;27404;52.398;9.646;2022-10-31T14:59:36;38.43;;;18.57;;
8159;SDS011;27404;52.398;9.646;2022-10-31T15:02:21;31.33;;;17.97;;
8159;SDS011;27404;52.398;9.646;2022-10-31T15:04:52;31.27;;;17.10;;
8159;SDS011;27404;52.398;9.646;2022-10-31T15:07:24;35.67;;;18.03;;
8159;SDS011;27404;52.398;9.646;2022-10-31T15:09:58;33.80;;;18.00;;
8159;SDS011;27404;52.398;9.646;2022-10-31T15:12:29;34.83;;;17.63;;
8159;SDS011;27404;52.398;9.646;2022-10-31T15:15:11;34.43;;;18.93;;
8159;SDS011;27404;52.398;9.646;2022-10-31T15:17:54;34.07;;;17.30;;
8159;SDS011;27404;52.398;9.646;2022-10-31T15:20:23;33.87;;;16.97;;
8159;SDS011;27404;52.398;9.646;2022-10-31T15:22:51;32.97;;;17.67;;
8159;SDS011;27404;52.398;9.646;2022-10-31T15:25:19;34.40;;;17.27;;
8159;SDS011;27404;52.398;9.646;2022-10-31T15:27:47;30.97;;;17.50;;
8159;SDS011;27404;52.398;9.646;2022-10-31T15:30:18;35.00;;;17.47;;
8159;SDS011;27404;52.398;9.646;2022-10-31T15:32:46;32.07;;;17.50;;
8159;SDS011;27404;52.398;9.646;2022-10-31T15:35:18;30.83;;;16.83;;
8159;SDS011;27404;52.398;9.646;2022-10-31T15:37:46;35.43;;;17.03;;
8159;SDS011;27404;52.398;9.646;2022-10-31T15:40:14;31.90;;;17.23;;
8159;SDS011;27404;52.398;9.646;2022-10-31T15:42:41;35.17;;;18.20;;
8159;SDS011;27404;52.398;9.646;2022-10-31T15:47:34;36.77;;;17.30;;
8159;SDS011;27404;52.398;9.646;2022-10-31T15:50:00;34.90;;;16.43;;
8159;SDS011;27404;52.398;9.646;2022-10-31T15:52:41;32.83;;;17.03;;
8159;SDS011;27404;52.398;9.646;2022-10-31T15:57:45;35.17;;;17.43;;
8159;SDS011;27404;52.398;9.646;2022-10-31T16:00:47;35.13;;;18.13;;
8159;SDS011;27404;52.398;9.646;2022-10-31T16:05:35;33.03;;;16.47;;
8159;SDS011;27404;52.398;9.646;2022-10-31T16:08:02;33.53;;;16.70;;
8159;SDS011;27404;52.398;9.646;2022-10-31T16:10:32;36.43;;;16.50;;
8159;SDS011;27404;52.398;9.646;2022-10-31T16:13:00;33.30;;;17.03;;
8159;SDS011;27404;52.398;9.646;2022-10-31T16:15:26;36.03;;;17.67;;
8159;SDS011;27404;52.398;9.646;2022-10-31T16:17:52;31.57;;;16.20;;
8159;SDS011;27404;52.398;9.646;2022-10-31T16:20:27;37.17;;;16.53;;
8159;SDS011;27404;52.398;9.646;2022-10-31T16:22:56;32.30;;;16.57;;
8159;SDS011;27404;52.398;9.646;2022-10-31T16:25:33;33.77;;;17.20;;
8159;SDS011;27404;52.398;9.646;2022-10-31T16:28:03;35.40;;;17.37;;
8159;SDS011;27404;52.398;9.646;2022-10-31T16:30:36;31.43;;;16.23;;
8159;SDS011;27404;52.398;9.646;2022-10-31T16:33:26;35.20;;;17.70;;
8159;SDS011;27404;52.398;9.646;2022-10-31T16:35:57;32.47;;;17.83;;
8159;SDS011;27404;52.398;9.646;2022-10-31T16:38:24;38.50;;;20.27;;
8159;SDS011;27404;52.398;9.646;2022-10-31T16:40:50;33.90;;;18.60;;
8159;SDS011;27404;52.398;9.646;2022-10-31T16:43:17;31.07;;;16.40;;
8159;SDS011;27404;52.398;9.646;2022-10-31T16:45:48;27.07;;;15.83;;
8159;SDS011;27404;52.398;9.646;2022-10-31T16:48:17;36.83;;;18.00;;
8159;SDS011;27404;52.398;9.646;2022-10-31T16:50:45;27.47;;;17.17;;
8159;SDS011;27404;52.398;9.646;2022-10-31T16:53:11;36.97;;;17.20;;
8159;SDS011;27404;52.398;9.646;2022-10-31T16:55:48;31.00;;;16.97;;
8159;SDS011;27404;52.398;9.646;2022-10-31T16:58:22;34.20;;;16.37;;
8159;SDS011;27404;52.398;9.646;2022-10-31T17:00:50;33.63;;;17.37;;
8159;SDS011;27404;52.398;9.646;2022-10-31T17:03:17;27.00;;;16.53;;
8159;SDS011;27404;52.398;9.646;2022-10-31T17:05:43;34.07;;;16.20;;
8159;SDS011;27404;52.398;9.646;2022-10-31T17:08:08;33.40;;;17.20;;
8159;SDS011;27404;52.398;9.646;2022-10-31T17:10:34;26.53;;;16.37;;
8159;SDS011;27404;52.398;9.646;2022-10-31T17:13:01;35.07;;;17.13;;
8159;SDS011;27404;52.398;9.646;2022-10-31T17:15:28;33.90;;;16.70;;
8159;SDS011;27404;52.398;9.646;2022-10-31T17:18:02;36.40;;;16.87;;
8159;SDS011;27404;52.398;9.646;2022-10-31T17:20:29;31.20;;;16.53;;
8159;SDS011;27404;52.398;9.646;2022-10-31T17:22:55;33.17;;;17.63;;
8159;SDS011;27404;52.398;9.646;2022-10-31T17:25:24;30.00;;;16.03;;
8159;SDS011;27404;52.398;9.646;2022-10-31T17:27:51;31.30;;;16.17;;
8159;SDS011;27404;52.398;9.646;2022-10-31T17:30:17;28.33;;;16.30;;
8159;SDS011;27404;52.398;9.646;2022-10-31T17:32:44;31.17;;;16.93;;
8159;SDS011;27404;52.398;9.646;2022-10-31T17:35:11;31.63;;;16.90;;
8159;SDS011;27404;52.398;9.646;2022-10-31T17:37:38;31.03;;;15.83;;